Time;durP1;ratioP1;P1;durP2;ratioP2;P2;SDS_P1;SDS_P2;PMS_P1;PMS_P2;Temp;Humidity;BMP_temperature;BMP_pressure;BME280_temperature;BME280_humidity;BME280_pressure;Samples;Min_cycle;Max_cycle;Signal;HPM_P1;HPM_P2
2023/11/21 00:00:51;;;;;;;20.27;5.45;;;6.20;99.90;;;;;;5016520;28;20046;-81
2023/11/21 00:03:38;;;;;;;28.02;6.60;;;6.20;99.90;;;;;;5015329;28;20465;-82
2023/11/21 00:06:26;;;;;;;16.05;5.70;;;6.20;99.90;;;;;;5002466;28;20046;-78
2023/11/21 00:09:15;;;;;;;17.63;5.38;;;6.30;99.90;;;;;;5016218;28;20050;-80
2023/11/21 00:12:05;;;;;;;23.70;5.57;;;6.30;99.90;;;;;;5016356;28;20038;-81
2023/11/21 00:14:55;;;;;;;14.65;5.22;;;6.30;99.90;;;;;;5014301;28;20050;-81
2023/11/21 00:17:44;;;;;;;31.88;5.95;;;6.30;99.90;;;;;;5013658;28;20436;-81
2023/11/21 00:20:31;;;;;;;14.80;4.97;;;6.30;99.90;;;;;;5015229;28;20060;-83
2023/11/21 00:23:23;;;;;;;22.02;5.43;;;6.30;99.90;;;;;;5014998;28;20104;-82
2023/11/21 00:26:14;;;;;;;18.90;5.30;;;6.40;99.90;;;;;;5009693;28;20046;-81
2023/11/21 00:29:01;;;;;;;22.90;6.07;;;6.40;99.90;;;;;;5013603;28;20050;-82
2023/11/21 00:31:48;;;;;;;23.75;6.97;;;6.40;99.90;;;;;;5018013;28;20046;-81
2023/11/21 00:34:36;;;;;;;20.45;7.85;;;6.40;99.90;;;;;;5025261;28;20105;-81
2023/11/21 00:37:23;;;;;;;19.02;5.22;;;6.40;99.90;;;;;;5034644;28;20128;-80
2023/11/21 00:40:11;;;;;;;15.60;4.70;;;6.40;99.90;;;;;;5031832;28;20068;-83
2023/11/21 00:42:59;;;;;;;11.02;4.47;;;6.40;99.90;;;;;;5015669;28;20093;-83
2023/11/21 00:45:51;;;;;;;11.88;4.03;;;6.40;99.90;;;;;;4998005;28;20096;-81
2023/11/21 00:48:38;;;;;;;16.27;3.90;;;6.40;99.90;;;;;;5010912;28;20085;-79
2023/11/21 00:51:25;;;;;;;12.73;4.47;;;6.40;99.90;;;;;;5013517;28;20474;-81
2023/11/21 00:54:16;;;;;;;16.10;4.20;;;6.40;99.90;;;;;;5012926;28;20042;-82
2023/11/21 00:57:08;;;;;;;17.08;3.92;;;6.50;99.90;;;;;;5012834;28;20049;-82
2023/11/21 00:59:55;;;;;;;15.10;3.67;;;6.50;99.90;;;;;;5002880;28;20471;-81
2023/11/21 01:02:45;;;;;;;15.73;4.00;;;6.50;99.90;;;;;;5009434;28;20050;-82
2023/11/21 01:05:34;;;;;;;10.50;3.25;;;6.50;99.90;;;;;;5013684;28;20077;-82
2023/11/21 01:08:21;;;;;;;10.82;3.65;;;6.60;99.90;;;;;;5011834;28;20104;-82
2023/11/21 01:11:10;;;;;;;9.88;3.28;;;6.60;99.90;;;;;;5012898;28;20112;-82
2023/11/21 01:13:57;;;;;;;7.20;3.03;;;6.60;99.90;;;;;;5009281;28;20046;-80
2023/11/21 01:16:45;;;;;;;13.13;3.40;;;6.50;99.90;;;;;;5005868;28;20057;-81
2023/11/21 01:19:35;;;;;;;7.80;3.10;;;6.50;99.90;;;;;;5010868;28;20646;-81
2023/11/21 01:22:26;;;;;;;12.05;3.08;;;6.50;99.90;;;;;;5013295;28;20168;-82
2023/11/21 01:25:14;;;;;;;9.55;2.58;;;6.50;99.90;;;;;;5011033;28;20042;-79
2023/11/21 01:28:01;;;;;;;6.13;2.75;;;6.40;99.90;;;;;;5013524;28;20450;-79
2023/11/21 01:30:49;;;;;;;8.73;2.53;;;6.40;99.90;;;;;;5012636;28;20046;-84
2023/11/21 01:33:36;;;;;;;9.05;2.63;;;6.50;99.90;;;;;;5013461;28;20100;-82
2023/11/21 01:36:31;;;;;;;10.77;3.33;;;6.40;99.90;;;;;;5022338;28;20050;-78
2023/11/21 01:39:23;;;;;;;8.82;3.45;;;6.40;99.90;;;;;;5013241;28;20058;-81
2023/11/21 01:42:12;;;;;;;6.75;2.72;;;6.40;99.90;;;;;;5014792;28;20089;-82
2023/11/21 01:45:04;;;;;;;5.63;2.05;;;6.40;99.90;;;;;;5009437;28;20455;-82
2023/11/21 01:47:53;;;;;;;7.73;2.67;;;6.50;99.90;;;;;;5010075;28;20050;-80
2023/11/21 01:50:44;;;;;;;7.63;3.03;;;6.50;99.90;;;;;;4998713;28;20312;-80
2023/11/21 01:53:32;;;;;;;9.13;2.78;;;6.50;99.90;;;;;;5011840;28;20037;-83
2023/11/21 01:56:19;;;;;;;7.00;2.42;;;6.40;99.90;;;;;;5012989;28;20050;-82
2023/11/21 01:59:09;;;;;;;7.45;2.28;;;6.40;99.90;;;;;;5007393;28;20053;-82
2023/11/21 02:01:57;;;;;;;8.85;2.78;;;6.30;99.90;;;;;;5006162;28;20049;-80
2023/11/21 02:04:44;;;;;;;6.40;2.40;;;6.30;99.90;;;;;;5012454;28;20042;-81
2023/11/21 02:07:32;;;;;;;5.32;2.58;;;6.30;99.90;;;;;;5001404;28;20482;-82
2023/11/21 02:10:22;;;;;;;4.30;2.80;;;6.20;99.90;;;;;;5004773;28;20042;-82
2023/11/21 02:13:11;;;;;;;11.25;2.67;;;6.20;99.90;;;;;;5002116;28;20050;-82
2023/11/21 02:15:58;;;;;;;7.82;2.22;;;6.20;99.90;;;;;;5009985;28;20486;-82
2023/11/21 02:18:48;;;;;;;11.57;2.40;;;6.20;99.90;;;;;;5012667;28;20114;-80
2023/11/21 02:21:40;;;;;;;8.13;2.63;;;6.20;99.90;;;;;;5010136;28;20057;-83
2023/11/21 02:24:29;;;;;;;12.68;2.45;;;6.20;99.90;;;;;;5013260;28;20046;-83
2023/11/21 02:27:21;;;;;;;8.70;2.22;;;6.20;99.90;;;;;;5006891;28;20053;-83
2023/11/21 02:30:13;;;;;;;7.05;1.80;;;6.20;99.90;;;;;;5011156;28;20068;-83
2023/11/21 02:33:01;;;;;;;6.15;2.03;;;6.10;99.90;;;;;;5014361;28;20041;-82
2023/11/21 02:35:48;;;;;;;5.65;2.22;;;6.20;99.90;;;;;;5012250;28;20155;-82
2023/11/21 02:38:36;;;;;;;4.30;1.77;;;6.20;99.90;;;;;;5006850;28;20053;-83
2023/11/21 02:41:23;;;;;;;3.42;1.95;;;6.20;99.90;;;;;;5010869;28;20435;-82
2023/11/21 02:44:10;;;;;;;6.05;2.08;;;6.20;99.90;;;;;;5011811;28;20117;-83
2023/11/21 02:47:00;;;;;;;11.40;2.40;;;6.20;99.90;;;;;;5008792;28;20041;-82
2023/11/21 02:49:51;;;;;;;9.60;1.92;;;6.30;99.90;;;;;;5007625;28;20058;-83
2023/11/21 02:52:42;;;;;;;7.50;1.85;;;6.20;99.90;;;;;;4996875;28;20047;-84
2023/11/21 02:55:30;;;;;;;4.70;2.03;;;6.20;99.90;;;;;;5014208;28;20387;-81
2023/11/21 02:58:18;;;;;;;1.98;1.40;;;6.30;99.90;;;;;;5011389;28;20033;-83
2023/11/21 03:01:05;;;;;;;5.00;1.92;;;6.30;99.90;;;;;;5010591;28;20046;-83
2023/11/21 03:03:55;;;;;;;5.25;1.90;;;6.30;99.90;;;;;;5000634;28;20762;-81
2023/11/21 03:06:45;;;;;;;5.07;1.63;;;6.20;99.90;;;;;;5011997;28;20093;-80
2023/11/21 03:09:35;;;;;;;7.68;1.70;;;6.20;99.90;;;;;;5016759;28;20227;-80
2023/11/21 03:12:22;;;;;;;8.63;2.15;;;6.20;99.90;;;;;;5016950;28;20054;-82
2023/11/21 03:15:09;;;;;;;3.92;1.80;;;6.20;99.90;;;;;;5008748;28;20052;-84
2023/11/21 03:17:57;;;;;;;4.40;1.55;;;6.10;99.90;;;;;;5006430;28;20054;-84
2023/11/21 03:20:46;;;;;;;6.32;1.65;;;6.10;99.90;;;;;;5015058;28;20404;-84
2023/11/21 03:23:34;;;;;;;5.07;1.52;;;6.10;99.90;;;;;;5005502;28;20042;-84
2023/11/21 03:26:22;;;;;;;5.50;1.67;;;6.10;99.90;;;;;;5014698;28;20124;-83
2023/11/21 03:29:09;;;;;;;4.55;1.35;;;6.10;99.90;;;;;;5013458;28;20061;-84
2023/11/21 03:31:56;;;;;;;3.97;1.52;;;6.10;99.90;;;;;;5010145;28;20056;-83
2023/11/21 03:34:56;;;;;;;7.75;1.80;;;6.10;99.90;;;;;;5012852;28;20462;-82
2023/11/21 03:37:43;;;;;;;2.97;1.42;;;6.00;99.90;;;;;;5010742;28;20112;-84
2023/11/21 03:40:31;;;;;;;3.33;1.45;;;6.00;99.90;;;;;;5014461;28;20132;-83
2023/11/21 03:43:19;;;;;;;5.07;1.33;;;6.00;99.90;;;;;;5010815;28;20054;-81
2023/11/21 03:46:07;;;;;;;5.18;1.48;;;6.00;99.90;;;;;;5014912;28;20060;-83
2023/11/21 03:48:55;;;;;;;3.60;1.48;;;6.10;99.90;;;;;;5003824;28;20057;-83
2023/11/21 03:51:42;;;;;;;4.38;1.52;;;6.10;99.90;;;;;;5015690;28;20121;-83
2023/11/21 03:54:29;;;;;;;5.15;1.73;;;6.00;99.90;;;;;;5006999;28;20046;-83
2023/11/21 03:57:17;;;;;;;6.32;1.63;;;6.00;99.90;;;;;;5014838;28;20057;-83
2023/11/21 04:00:08;;;;;;;6.43;1.75;;;6.00;99.90;;;;;;5013689;28;20446;-81
2023/11/21 04:02:58;;;;;;;5.65;1.60;;;6.00;99.90;;;;;;5016448;28;20481;-83
2023/11/21 04:05:47;;;;;;;5.45;1.38;;;6.00;99.90;;;;;;5012392;28;20496;-82
2023/11/21 04:08:34;;;;;;;6.40;1.45;;;6.10;99.90;;;;;;5014397;28;20042;-82
2023/11/21 04:11:21;;;;;;;1.88;1.40;;;6.10;99.90;;;;;;5006720;28;20049;-82
2023/11/21 04:14:09;;;;;;;4.65;1.30;;;6.10;99.90;;;;;;5026730;28;20056;-81
2023/11/21 04:16:56;;;;;;;3.70;1.52;;;6.10;99.90;;;;;;5027164;28;20049;-81
2023/11/21 04:19:46;;;;;;;2.60;1.40;;;6.10;99.90;;;;;;5021959;28;20069;-81
2023/11/21 04:22:33;;;;;;;6.15;1.90;;;6.20;99.90;;;;;;5030074;28;20101;-82
2023/11/21 04:25:22;;;;;;;2.42;1.40;;;6.20;99.90;;;;;;5031008;28;20053;-82
2023/11/21 04:28:09;;;;;;;5.45;1.92;;;6.20;99.90;;;;;;5029135;28;20046;-81
2023/11/21 04:30:57;;;;;;;1.40;1.23;;;6.20;99.90;;;;;;5019557;28;20057;-81
2023/11/21 04:33:44;;;;;;;7.00;1.77;;;6.20;99.90;;;;;;5015401;28;20628;-82
2023/11/21 04:36:32;;;;;;;4.82;2.03;;;6.20;99.90;;;;;;5003741;28;20132;-80
2023/11/21 04:39:20;;;;;;;5.72;1.80;;;6.20;99.90;;;;;;5014374;28;20038;-82
2023/11/21 04:42:07;;;;;;;2.33;1.85;;;6.20;99.90;;;;;;5011220;28;20051;-81
2023/11/21 04:44:54;;;;;;;3.30;1.30;;;6.20;99.90;;;;;;5006028;28;20451;-82
2023/11/21 04:47:45;;;;;;;6.95;1.55;;;6.10;99.90;;;;;;5002292;28;20139;-82
2023/11/21 04:50:32;;;;;;;3.92;1.40;;;6.20;99.90;;;;;;5011940;28;20339;-82
2023/11/21 04:53:22;;;;;;;3.30;1.30;;;6.20;99.90;;;;;;5011867;28;20046;-82
2023/11/21 04:56:09;;;;;;;3.03;1.30;;;6.10;99.90;;;;;;5013783;28;20038;-82
2023/11/21 04:58:56;;;;;;;1.45;1.10;;;6.10;99.90;;;;;;5013550;28;20061;-83
2023/11/21 05:01:43;;;;;;;8.52;2.03;;;6.10;99.90;;;;;;5000054;28;20051;-83
2023/11/21 05:04:31;;;;;;;4.78;1.63;;;6.10;99.90;;;;;;5011896;28;20061;-82
2023/11/21 05:07:18;;;;;;;5.43;1.60;;;6.10;99.90;;;;;;5000077;28;20042;-82
2023/11/21 05:10:10;;;;;;;3.03;1.15;;;6.10;99.90;;;;;;5013263;28;20045;-82
2023/11/21 05:12:58;;;;;;;3.83;1.70;;;6.10;99.90;;;;;;5008447;28;20061;-81
2023/11/21 05:15:45;;;;;;;3.50;1.98;;;6.10;99.90;;;;;;5012996;28;20129;-80
2023/11/21 05:18:34;;;;;;;4.75;1.90;;;6.20;99.90;;;;;;5014249;28;20053;-82
2023/11/21 05:21:21;;;;;;;4.80;2.22;;;6.10;99.90;;;;;;5015042;28;20042;-82
2023/11/21 05:24:11;;;;;;;2.53;2.20;;;6.10;99.90;;;;;;5010285;28;20042;-80
2023/11/21 05:26:58;;;;;;;6.15;2.45;;;6.20;99.90;;;;;;5002317;28;20050;-82
2023/11/21 05:29:45;;;;;;;3.58;2.15;;;6.10;99.90;;;;;;5010039;28;20172;-81
2023/11/21 05:32:34;;;;;;;3.05;2.40;;;6.10;99.90;;;;;;5021172;28;20050;-81
2023/11/21 05:35:21;;;;;;;2.63;2.30;;;6.10;99.90;;;;;;5025110;28;20080;-81
2023/11/21 05:38:08;;;;;;;3.53;2.55;;;6.10;99.90;;;;;;5032408;28;20097;-81
2023/11/21 05:40:56;;;;;;;7.05;2.53;;;6.10;99.90;;;;;;5028645;28;20054;-82
2023/11/21 05:43:43;;;;;;;3.47;2.53;;;6.10;99.90;;;;;;5022369;28;20056;-82
2023/11/21 05:46:33;;;;;;;3.83;2.72;;;6.10;99.90;;;;;;5009558;28;20081;-82
2023/11/21 05:49:23;;;;;;;10.43;3.20;;;6.10;99.90;;;;;;5010285;23;20494;-81
2023/11/21 05:52:10;;;;;;;5.50;3.63;;;6.00;99.90;;;;;;5004711;28;20580;-82
2023/11/21 05:54:57;;;;;;;8.10;3.13;;;6.10;99.90;;;;;;5010171;28;20049;-81
2023/11/21 05:57:45;;;;;;;7.72;3.00;;;6.10;99.90;;;;;;5002637;28;20386;-80
2023/11/21 06:00:33;;;;;;;7.55;3.78;;;6.10;99.90;;;;;;5011826;28;20061;-81
2023/11/21 06:03:20;;;;;;;6.68;3.10;;;6.10;99.90;;;;;;5013775;28;20382;-79
2023/11/21 06:06:08;;;;;;;4.50;3.58;;;6.10;99.90;;;;;;5023928;28;20134;-81
2023/11/21 06:08:57;;;;;;;7.10;4.20;;;6.20;99.90;;;;;;5009118;28;20374;-81
2023/11/21 06:11:44;;;;;;;9.43;5.45;;;6.10;99.90;;;;;;5022187;28;20045;-81
2023/11/21 06:14:34;;;;;;;10.70;4.30;;;6.10;99.90;;;;;;5010921;28;20053;-81
2023/11/21 06:17:24;;;;;;;6.03;4.47;;;6.00;99.90;;;;;;5012355;28;20482;-81
2023/11/21 06:20:15;;;;;;;9.90;5.22;;;6.10;99.90;;;;;;5004656;28;20053;-81
2023/11/21 06:23:03;;;;;;;10.68;5.30;;;6.10;99.90;;;;;;4999766;28;20132;-84
2023/11/21 06:25:51;;;;;;;7.05;5.03;;;6.00;99.90;;;;;;5011096;28;20168;-82
2023/11/21 06:28:38;;;;;;;9.27;6.65;;;6.00;99.90;;;;;;5000205;28;20073;-84
2023/11/21 06:31:25;;;;;;;8.88;5.90;;;6.00;99.90;;;;;;4996252;28;20052;-82
2023/11/21 06:34:15;;;;;;;9.30;6.80;;;6.10;99.90;;;;;;4990042;28;20484;-83
2023/11/21 06:37:02;;;;;;;9.82;7.07;;;6.10;99.90;;;;;;4996843;28;20064;-82
2023/11/21 06:39:52;;;;;;;11.18;7.50;;;6.00;99.90;;;;;;5005239;28;20050;-81
2023/11/21 06:42:39;;;;;;;11.85;7.13;;;6.10;99.90;;;;;;5012484;28;20478;-81
2023/11/21 06:45:26;;;;;;;8.40;7.50;;;6.10;99.90;;;;;;4992944;28;20046;-82
2023/11/21 06:48:14;;;;;;;12.63;7.80;;;6.10;99.90;;;;;;5007512;28;20046;-84
2023/11/21 06:51:02;;;;;;;11.55;7.85;;;6.10;99.90;;;;;;4998871;28;20105;-83
2023/11/21 06:53:51;;;;;;;14.55;8.30;;;6.10;99.90;;;;;;5009180;28;20045;-84
2023/11/21 06:56:41;;;;;;;11.32;7.72;;;6.10;99.90;;;;;;5009807;28;20042;-81
2023/11/21 06:59:31;;;;;;;10.20;7.32;;;6.10;99.90;;;;;;4994597;28;20046;-83
2023/11/21 07:02:18;;;;;;;11.20;6.85;;;6.10;99.90;;;;;;4996318;28;20041;-83
2023/11/21 07:05:09;;;;;;;11.27;7.00;;;6.20;99.90;;;;;;4996130;28;20045;-84
2023/11/21 07:08:04;;;;;;;8.13;6.03;;;6.10;99.90;;;;;;5016819;28;20304;-83
2023/11/21 07:10:52;;;;;;;12.93;6.18;;;6.10;99.90;;;;;;5011071;28;20050;-84
2023/11/21 07:13:44;;;;;;;12.40;7.32;;;6.20;99.90;;;;;;5016776;28;20060;-82
2023/11/21 07:16:31;;;;;;;14.57;7.93;;;6.20;99.90;;;;;;4999859;28;20057;-83
2023/11/21 07:19:19;;;;;;;14.05;7.55;;;6.20;99.90;;;;;;4994831;28;20104;-82
2023/11/21 07:22:08;;;;;;;10.35;7.03;;;6.20;99.90;;;;;;5007825;28;20061;-78
2023/11/21 07:25:00;;;;;;;10.20;6.85;;;6.20;99.90;;;;;;4988698;28;20129;-81
2023/11/21 07:27:48;;;;;;;;;;;6.20;99.90;;;;;;5016550;28;20049;-80
2023/11/21 07:30:38;;;;;;;9.13;5.90;;;6.20;99.90;;;;;;5009530;28;19925;-80
2023/11/21 07:33:27;;;;;;;11.07;6.38;;;6.20;99.90;;;;;;5010469;28;20109;-82
2023/11/21 07:36:18;;;;;;;11.68;5.85;;;6.30;99.90;;;;;;5006873;28;20060;-81
2023/11/21 07:39:06;;;;;;;10.63;6.18;;;6.30;99.90;;;;;;4994605;28;20056;-81
2023/11/21 07:41:57;;;;;;;6.93;5.40;;;6.30;99.90;;;;;;4990931;28;20455;-81
2023/11/21 07:44:47;;;;;;;9.52;6.32;;;6.30;99.90;;;;;;5012923;28;20064;-81
2023/11/21 07:47:35;;;;;;;8.13;4.72;;;6.30;99.90;;;;;;5003214;28;20046;-80
2023/11/21 07:50:26;;;;;;;5.82;4.47;;;6.30;99.90;;;;;;5010458;28;20050;-80
2023/11/21 07:53:14;;;;;;;7.32;4.80;;;6.30;99.90;;;;;;5011002;28;20160;-80
2023/11/21 07:56:08;;;;;;;8.98;4.00;;;6.30;99.90;;;;;;4999963;28;20070;-82
2023/11/21 07:59:00;;;;;;;8.48;3.25;;;6.30;99.90;;;;;;4999924;28;20054;-83
2023/11/21 08:01:49;;;;;;;4.10;2.85;;;6.30;99.90;;;;;;4998492;28;20056;-83
2023/11/21 08:04:37;;;;;;;3.45;2.83;;;6.30;99.90;;;;;;5014585;28;20057;-82
2023/11/21 08:07:25;;;;;;;5.10;2.65;;;6.40;99.90;;;;;;5009318;28;20120;-81
2023/11/21 08:10:13;;;;;;;5.32;2.78;;;6.40;99.90;;;;;;5014492;28;20053;-82
2023/11/21 08:13:02;;;;;;;5.20;2.65;;;6.40;99.90;;;;;;4997058;28;20395;-81
2023/11/21 08:15:49;;;;;;;5.55;2.30;;;6.40;99.90;;;;;;5012039;28;20323;-81
2023/11/21 08:18:37;;;;;;;5.45;2.85;;;6.50;99.90;;;;;;5008472;28;20043;-81
2023/11/21 08:21:28;;;;;;;2.95;2.38;;;6.50;99.90;;;;;;5019196;28;20072;-82
2023/11/21 08:24:16;;;;;;;5.10;2.30;;;6.50;99.90;;;;;;5010873;28;20073;-81
2023/11/21 08:27:05;;;;;;;4.65;2.22;;;6.60;99.90;;;;;;4996748;28;20056;-81
2023/11/21 08:29:56;;;;;;;4.05;2.42;;;6.60;99.90;;;;;;4999003;28;20054;-81
2023/11/21 08:32:43;;;;;;;4.03;2.40;;;6.70;99.90;;;;;;5010700;28;20042;-82
2023/11/21 08:35:31;;;;;;;2.95;2.65;;;6.70;99.90;;;;;;4995850;28;20053;-81
2023/11/21 08:38:20;;;;;;;5.28;3.05;;;6.70;99.90;;;;;;4986957;28;20347;-81
2023/11/21 08:41:15;;;;;;;6.03;2.20;;;6.80;99.90;;;;;;5009653;28;20050;-82
2023/11/21 08:44:06;;;;;;;3.05;1.92;;;6.90;99.90;;;;;;4997968;28;20070;-81
2023/11/21 08:46:57;;;;;;;3.55;2.50;;;6.90;99.90;;;;;;5013486;28;20207;-81
2023/11/21 08:49:47;;;;;;;3.67;2.38;;;7.00;99.90;;;;;;5015813;28;20073;-81
2023/11/21 08:52:34;;;;;;;3.65;2.10;;;7.20;99.90;;;;;;5022776;28;20050;-81
2023/11/21 08:55:22;;;;;;;3.90;2.20;;;7.20;99.90;;;;;;5016222;28;20498;-81
2023/11/21 08:58:12;;;;;;;5.07;2.30;;;7.40;99.90;;;;;;5008534;28;20046;-80
2023/11/21 09:00:59;;;;;;;1.77;1.63;;;7.50;99.90;;;;;;5012796;28;20038;-82
2023/11/21 09:03:47;;;;;;;2.75;2.03;;;7.70;99.90;;;;;;5010837;28;20045;-81
2023/11/21 09:06:37;;;;;;;3.83;1.98;;;7.80;99.90;;;;;;5013366;28;20053;-80
2023/11/21 09:09:25;;;;;;;3.67;1.98;;;7.80;99.90;;;;;;5000791;28;20065;-80
2023/11/21 09:12:13;;;;;;;3.40;2.08;;;7.90;99.90;;;;;;5002613;28;20068;-81
2023/11/21 09:15:04;;;;;;;5.43;1.88;;;7.90;99.90;;;;;;5001311;28;20050;-81
2023/11/21 09:17:52;;;;;;;2.17;1.90;;;7.90;99.90;;;;;;5007238;28;20129;-82
2023/11/21 09:20:40;;;;;;;2.97;2.00;;;7.90;99.90;;;;;;5003639;28;20042;-82
2023/11/21 09:23:27;;;;;;;3.65;2.20;;;7.90;99.90;;;;;;5003613;28;20042;-80
2023/11/21 09:26:16;;;;;;;6.32;1.85;;;7.90;99.90;;;;;;5006502;28;20470;-80
2023/11/21 09:29:07;;;;;;;4.60;2.00;;;7.90;99.90;;;;;;5009801;28;20071;-81
2023/11/21 09:31:59;;;;;;;3.45;2.10;;;7.80;99.90;;;;;;4996132;28;20104;-82
2023/11/21 09:34:51;;;;;;;2.85;2.08;;;7.80;99.90;;;;;;4998543;28;20055;-81
2023/11/21 09:37:38;;;;;;;4.60;2.27;;;7.70;99.90;;;;;;5010213;28;20058;-80
2023/11/21 09:40:26;;;;;;;2.95;2.15;;;7.80;99.90;;;;;;5004310;28;20038;-80
2023/11/21 09:43:17;;;;;;;4.13;2.13;;;7.70;99.90;;;;;;4996985;28;20050;-80
2023/11/21 09:46:10;;;;;;;2.53;2.00;;;7.70;99.90;;;;;;4991857;28;20528;-79
2023/11/21 09:49:07;;;;;;;2.55;1.95;;;7.80;99.90;;;;;;5012002;28;20065;-79
2023/11/21 09:52:03;;;;;;;3.85;2.38;;;7.90;99.90;;;;;;5007829;28;20058;-80
2023/11/21 09:54:53;;;;;;;2.50;2.03;;;8.10;99.90;;;;;;5012031;28;20034;-80
2023/11/21 09:57:43;;;;;;;3.20;2.15;;;8.20;99.90;;;;;;4998287;28;20046;-80
2023/11/21 10:00:32;;;;;;;6.10;2.45;;;8.30;99.90;;;;;;5007977;28;20359;-80
2023/11/21 10:03:23;;;;;;;2.85;1.80;;;8.20;99.90;;;;;;5009643;28;20061;-82
2023/11/21 10:06:14;;;;;;;2.47;2.00;;;8.10;99.90;;;;;;5002981;28;20049;-83
2023/11/21 10:09:11;;;;;;;22.23;11.88;;;8.00;99.90;;;;;;5016472;28;20435;-82
2023/11/21 10:12:03;;;;;;;6.80;3.38;;;7.90;99.90;;;;;;5004440;28;20045;-84
2023/11/21 10:14:58;;;;;;;7.75;4.55;;;7.70;99.90;;;;;;5007810;28;20100;-84
2023/11/21 10:18:03;;;;;;;3.80;2.90;;;7.60;99.90;;;;;;5009451;28;20088;-84
2023/11/21 10:20:56;;;;;;;3.53;2.53;;;7.50;99.90;;;;;;4994323;28;20370;-83
2023/11/21 10:23:43;;;;;;;;;;;7.40;99.90;;;;;;4993954;28;20141;-82
2023/11/21 10:26:40;;;;;;;6.68;3.35;;;7.30;99.90;;;;;;5007483;28;19972;-84
2023/11/21 10:29:44;;;;;;;8.45;3.92;;;7.30;99.90;;;;;;5009607;28;20133;-84
2023/11/21 10:32:32;;;;;;;7.22;4.32;;;7.30;99.90;;;;;;4995895;28;20081;-83
2023/11/21 10:35:20;;;;;;;6.65;4.47;;;7.40;99.90;;;;;;4999270;28;20049;-82
2023/11/21 10:38:13;;;;;;;7.30;3.55;;;7.40;99.90;;;;;;4993937;28;20057;-82
2023/11/21 10:41:04;;;;;;;7.15;3.78;;;7.40;99.90;;;;;;5008149;28;20034;-82
2023/11/21 10:43:55;;;;;;;5.68;4.03;;;7.40;99.90;;;;;;5008743;28;20042;-81
2023/11/21 10:46:50;;;;;;;6.35;3.83;;;7.30;99.90;;;;;;5013271;28;20038;-81
2023/11/21 10:49:40;;;;;;;7.10;3.75;;;7.30;99.90;;;;;;5003359;28;20050;-81
2023/11/21 10:52:30;;;;;;;5.88;3.92;;;7.30;99.90;;;;;;5006076;28;20049;-81
2023/11/21 10:55:23;;;;;;;5.90;4.43;;;7.40;99.90;;;;;;5008929;28;20462;-81
2023/11/21 10:58:14;;;;;;;7.28;4.18;;;7.40;99.90;;;;;;4993318;28;20094;-82
2023/11/21 11:01:07;;;;;;;6.43;4.40;;;7.40;99.90;;;;;;4994047;28;20037;-81
2023/11/21 11:03:57;;;;;;;6.35;4.20;;;7.50;99.90;;;;;;5001855;28;20049;-81
2023/11/21 11:06:53;;;;;;;7.05;4.70;;;7.60;99.90;;;;;;5007632;28;20093;-81
2023/11/21 11:09:45;;;;;;;6.53;4.25;;;7.70;99.90;;;;;;5000052;28;20042;-82
2023/11/21 11:12:32;;;;;;;10.75;5.68;;;7.70;99.90;;;;;;5010894;28;20046;-82
2023/11/21 11:15:20;;;;;;;5.05;4.18;;;7.70;99.90;;;;;;4991482;28;20086;-80
2023/11/21 11:18:10;;;;;;;8.75;4.57;;;7.70;99.90;;;;;;5009780;28;20124;-82
2023/11/21 11:21:20;;;;;;;8.30;5.32;;;7.80;99.90;;;;;;4997953;28;20046;-81
2023/11/21 11:24:45;;;;;;;9.07;4.40;;;7.80;99.90;;;;;;4987866;28;20427;-81
2023/11/21 11:27:59;;;;;;;13.98;7.50;;;7.90;99.90;;;;;;5006823;28;20335;-81
2023/11/21 11:31:03;;;;;;;6.85;4.78;;;7.90;99.90;;;;;;5011427;28;20046;-82
2023/11/21 11:34:20;;;;;;;5.35;4.43;;;7.90;99.90;;;;;;5006904;28;20042;-80
2023/11/21 11:37:11;;;;;;;5.88;3.33;;;8.10;99.90;;;;;;5009988;28;20125;-80
2023/11/21 11:40:00;;;;;;;3.25;2.65;;;8.30;99.90;;;;;;4995858;28;20062;-81
2023/11/21 11:42:59;;;;;;;3.72;2.90;;;8.30;99.90;;;;;;5016372;28;20046;-82
2023/11/21 11:45:51;;;;;;;3.33;2.97;;;8.40;99.90;;;;;;5012835;28;20103;-79
2023/11/21 11:48:45;;;;;;;2.85;2.55;;;8.30;99.90;;;;;;5014140;28;20045;-80
2023/11/21 11:51:32;;;;;;;4.30;3.38;;;8.30;99.90;;;;;;5013449;28;20137;-82
2023/11/21 11:54:35;;;;;;;6.93;3.05;;;8.20;99.90;;;;;;4996406;28;20124;-80
2023/11/21 11:57:25;;;;;;;5.53;2.97;;;8.20;99.90;;;;;;5011970;28;20042;-81
2023/11/21 12:00:21;;;;;;;4.30;2.72;;;8.20;99.90;;;;;;5014830;28;20085;-80
2023/11/21 12:03:09;;;;;;;7.60;2.78;;;8.20;99.90;;;;;;4992775;28;20103;-81
2023/11/21 12:06:00;;;;;;;5.45;3.17;;;8.20;99.90;;;;;;5002589;28;20061;-81
2023/11/21 12:08:47;;;;;;;4.13;3.35;;;8.20;99.90;;;;;;4997077;28;20527;-81
2023/11/21 12:11:40;;;;;;;3.63;2.90;;;8.20;99.90;;;;;;5003411;28;20060;-81
2023/11/21 12:14:30;;;;;;;4.82;3.33;;;8.10;99.90;;;;;;5011271;28;20050;-81
2023/11/21 12:17:24;;;;;;;5.38;3.25;;;8.10;99.90;;;;;;5010723;28;20169;-81
2023/11/21 12:20:17;;;;;;;7.65;3.72;;;8.10;99.90;;;;;;5009090;28;20038;-80
2023/11/21 12:23:05;;;;;;;4.65;3.75;;;8.10;99.90;;;;;;5010665;28;20046;-81
2023/11/21 12:25:53;;;;;;;4.57;3.92;;;8.00;99.90;;;;;;5004146;28;20038;-82
2023/11/21 12:28:43;;;;;;;5.10;3.60;;;7.90;99.90;;;;;;5014633;28;20145;-82
2023/11/21 12:31:35;;;;;;;5.65;4.00;;;7.90;99.90;;;;;;5011031;28;20431;-80
2023/11/21 12:34:23;;;;;;;5.05;3.75;;;7.80;99.90;;;;;;5006196;28;20050;-83
2023/11/21 12:37:10;;;;;;;5.65;3.60;;;7.80;99.90;;;;;;5009487;28;20057;-82
2023/11/21 12:39:58;;;;;;;6.40;3.28;;;7.80;99.90;;;;;;5014261;28;20053;-82
2023/11/21 13:51:58;;;;;;;5.72;3.38;;;9.10;99.90;;;;;;6009090;23;20024;-82
2023/11/21 13:54:48;;;;;;;5.65;4.00;;;8.80;99.90;;;;;;6092889;23;20317;-82
2023/11/21 13:57:35;;;;;;;9.48;4.13;;;8.60;99.90;;;;;;6105357;23;20036;-81
2023/11/21 14:03:50;;;;;;;6.20;3.55;;;8.20;99.90;;;;;;6130347;23;20057;-82
2023/11/21 14:06:47;;;;;;;2.75;2.55;;;8.10;99.90;;;;;;6108765;23;20101;-82
2023/11/21 14:09:43;;;;;;;4.03;2.88;;;7.90;99.90;;;;;;6110269;23;20137;-84
2023/11/21 14:12:39;;;;;;;3.28;2.45;;;7.90;99.90;;;;;;6107147;23;20127;-82
2023/11/21 14:15:29;;;;;;;3.40;2.35;;;7.90;99.90;;;;;;6108499;23;20323;-82
2023/11/21 14:18:27;;;;;;;4.97;2.22;;;7.80;99.90;;;;;;6102441;23;20032;-81
2023/11/21 14:21:16;;;;;;;2.17;1.95;;;7.80;99.90;;;;;;6106050;23;20029;-82
2023/11/21 14:24:09;;;;;;;2.17;1.98;;;7.80;99.90;;;;;;6126439;23;20029;-83
2023/11/21 14:27:00;;;;;;;1.88;1.73;;;7.80;99.90;;;;;;6126485;23;20028;-82
2023/11/21 14:29:51;;;;;;;1.65;1.55;;;7.80;99.90;;;;;;6124878;22;20030;-82
2023/11/21 14:32:39;;;;;;;1.80;1.70;;;7.80;99.90;;;;;;6100604;23;20026;-82
2023/11/21 14:35:32;;;;;;;1.90;1.80;;;7.90;99.90;;;;;;6099683;23;20041;-82
2023/11/21 14:38:20;;;;;;;2.33;1.70;;;7.80;99.90;;;;;;6096181;23;20814;-81
2023/11/21 14:41:11;;;;;;;2.50;1.50;;;7.80;99.90;;;;;;6098001;23;20053;-82
2023/11/21 14:43:59;;;;;;;2.72;2.00;;;7.70;99.90;;;;;;6122443;23;20022;-84
2023/11/21 14:46:50;;;;;;;2.83;2.00;;;7.70;99.90;;;;;;6101460;23;20104;-83
2023/11/21 14:49:52;;;;;;;2.45;2.25;;;7.70;99.90;;;;;;6122392;23;20340;-83
2023/11/21 14:52:55;;;;;;;2.55;2.10;;;7.70;99.90;;;;;;6120196;23;20056;-82
2023/11/21 14:58:39;;;;;;;4.60;3.30;;;7.70;99.90;;;;;;6120842;23;20025;-83
2023/11/21 15:01:53;;;;;;;6.38;4.20;;;7.70;99.90;;;;;;6097149;23;20022;-81
2023/11/21 15:07:57;;;;;;;4.90;4.35;;;7.60;99.90;;;;;;6119820;23;20416;-83
2023/11/21 15:10:52;;;;;;;3.85;3.53;;;7.50;99.90;;;;;;6097103;23;20409;-84
2023/11/21 15:13:45;;;;;;;6.13;4.43;;;7.50;99.90;;;;;;6101137;23;20379;-82
2023/11/21 15:16:47;;;;;;;6.88;4.53;;;7.40;99.90;;;;;;6097961;23;20447;-83
2023/11/21 15:19:35;;;;;;;6.13;5.05;;;7.40;99.90;;;;;;6098559;23;20029;-82
2023/11/21 15:22:25;;;;;;;6.43;4.47;;;7.30;99.90;;;;;;6120830;23;20034;-82
2023/11/21 15:25:17;;;;;;;5.20;4.38;;;7.30;99.90;;;;;;6120434;23;20018;-82
2023/11/21 15:28:05;;;;;;;5.97;5.18;;;7.30;99.90;;;;;;6120316;23;20390;-83
2023/11/21 15:30:57;;;;;;;5.45;4.85;;;7.30;99.90;;;;;;6123622;22;20029;-82
2023/11/21 15:33:45;;;;;;;9.02;5.50;;;7.20;99.90;;;;;;6101975;23;20121;-83
2023/11/21 15:36:33;;;;;;;5.93;5.20;;;7.20;99.90;;;;;;6102175;23;20120;-82
2023/11/21 15:39:28;;;;;;;6.63;5.57;;;7.20;99.90;;;;;;6118481;23;20029;-81
2023/11/21 15:42:23;;;;;;;8.55;5.95;;;7.20;99.90;;;;;;6120856;23;20313;-83
2023/11/21 15:45:13;;;;;;;7.07;5.72;;;7.20;99.90;;;;;;6105076;23;20048;-82
2023/11/21 15:48:03;;;;;;;8.40;6.15;;;7.10;99.90;;;;;;6111486;23;20026;-84
2023/11/21 15:50:57;;;;;;;10.52;6.07;;;7.10;99.90;;;;;;6125281;23;20435;-83
2023/11/21 15:53:49;;;;;;;11.40;7.55;;;7.10;99.90;;;;;;6105398;23;20030;-81
2023/11/21 15:56:38;;;;;;;10.30;8.02;;;7.10;99.90;;;;;;6104285;23;20026;-80
2023/11/21 15:59:31;;;;;;;13.65;8.68;;;7.10;99.90;;;;;;6106045;23;20049;-81
2023/11/21 16:02:19;;;;;;;10.55;8.18;;;7.10;99.90;;;;;;6113736;23;20026;-80
2023/11/21 16:05:08;;;;;;;11.73;9.07;;;7.10;99.90;;;;;;6121573;23;20021;-81
2023/11/21 16:07:55;;;;;;;14.13;9.20;;;7.10;99.90;;;;;;6118582;23;20459;-79
2023/11/21 16:10:43;;;;;;;12.20;8.40;;;7.00;99.90;;;;;;6118545;23;20044;-79
2023/11/21 16:13:34;;;;;;;19.15;10.57;;;7.00;99.90;;;;;;6119913;23;20026;-79